Terminal Aerodrome Forecast
Issued by NWS Bismarck, ND

Home | Current Version | Previous Version | Graphics & Text | Print | Product List | Glossary On
Versions: 1 2 3 4 5 6 7 8 9 10 11 12 13 14 15 16
592
FTUS43 KBIS 201725
TAFBIS
TAF
KBIS 201725Z 2018/2118 04012KT P6SM OVC100
     FM210300 07008KT P6SM BKN070
     FM210600 01005KT P6SM BKN080
     FM211300 32007KT P6SM SCT100=

USA.gov is the U.S. government's official web portal to all federal, state and local government web resources and services.